Terminal Aerodrome Forecast
Issued by NWS

Home | Current Version | Previous Version | Text Only | Print | Product List | Glossary On
Versions: 1 2 3 4 5 6 7 8 9 10 11 12 13 14 15
000
FTUS43 KILX 250259 AAA
TAFBMI
TAF AMD
KBMI 250259Z 2503/2524 17016KT P6SM SCT060
     FM250500 17016KT 5SM -SHRA VCTS BKN035CB
     FM250700 17018G25KT 4SM -SHRA VCTS BKN025CB
     FM251400 22020G28KT P6SM BKN020
     FM251800 22016KT P6SM SCT040=

USA.gov is the U.S. government's official web portal to all federal, state and local government web resources and services.